createdAt,value
2019-05-10T14:26:30.465Z,5.22
2019-05-10T14:31:35.040Z,7.97
2019-05-10T14:41:45.270Z,4.22
2019-05-10T14:46:50.158Z,3.60
2019-05-10T14:51:59.098Z,5.95
2019-05-10T14:57:00.040Z,5.40
2019-05-10T15:02:04.136Z,3.33
2019-05-10T15:07:13.557Z,3.87
2019-05-10T15:12:16.358Z,18.98
2019-05-10T15:17:20.465Z,11.65
2019-05-10T15:22:24.879Z,10.95
2019-05-10T15:27:29.097Z,11.60
2019-05-10T15:32:33.082Z,10.15
2019-05-10T15:37:40.899Z,8.93
2019-05-10T15:42:43.485Z,6.28
2019-05-10T15:47:51.998Z,8.88
2019-05-10T15:52:54.435Z,7.03
2019-05-10T15:58:00.200Z,10.23
2019-05-10T16:03:04.669Z,10.55
2019-05-10T16:08:08.767Z,12.33
2019-05-10T16:13:14.621Z,12.58
2019-05-10T16:18:19.090Z,10.93
2019-05-10T16:23:23.094Z,12.43
2019-05-10T16:28:29.582Z,13.13
2019-05-10T16:33:33.653Z,11.80
2019-05-10T16:38:38.141Z,11.83
2019-05-10T16:43:42.366Z,11.33
2019-05-10T16:48:46.636Z,9.95
2019-05-10T16:53:50.753Z,7.85
2019-05-10T16:58:55.156Z,9.10
2019-05-10T17:09:09.370Z,8.88
2019-05-10T17:14:12.649Z,9.90
2019-05-10T17:19:17.264Z,8.80
2019-05-10T17:24:23.947Z,8.83
2019-05-10T17:29:27.183Z,12.28
2019-05-10T17:34:31.093Z,10.43
2019-05-10T17:39:35.355Z,10.37
2019-05-10T17:44:43.271Z,12.70
2019-05-10T17:49:45.546Z,13.65
2019-05-10T17:54:49.498Z,13.45
2019-05-10T17:59:54.684Z,13.03
2019-05-10T18:04:59.670Z,12.78
2019-05-10T18:10:05.218Z,9.80
2019-05-10T18:15:11.179Z,8.95
2019-05-10T18:20:16.835Z,6.55
2019-05-10T18:25:22.382Z,6.33
2019-05-10T18:30:26.619Z,6.58
2019-05-10T18:35:30.810Z,8.45
2019-05-10T18:40:34.889Z,16.95
2019-05-10T18:45:39.232Z,14.80
2019-05-10T18:50:45.422Z,9.60
2019-05-10T18:55:48.958Z,7.37
2019-05-10T19:00:56.041Z,8.97
2019-05-10T19:06:04.209Z,6.72
2019-05-10T19:11:05.391Z,9.68
2019-05-10T19:16:10.225Z,6.50
2019-05-10T19:21:14.312Z,8.68
2019-05-10T19:26:23.678Z,8.73
2019-05-10T19:31:24.567Z,9.10
2019-05-10T19:36:28.701Z,10.10
2019-05-10T19:41:33.117Z,8.70
2019-05-10T19:46:39.478Z,8.75
2019-05-10T19:51:48.403Z,10.28
2019-05-10T19:56:48.968Z,11.12
2019-05-10T20:01:52.967Z,10.23
2019-05-10T20:06:57.401Z,9.33
2019-05-10T20:12:02.079Z,11.10
2019-05-10T20:17:06.353Z,8.75
2019-05-10T20:22:10.484Z,12.75
2019-05-10T20:27:15.190Z,10.08
2019-05-10T20:37:23.151Z,12.43
2019-05-10T20:47:30.368Z,12.95
2019-05-10T20:52:34.959Z,13.98
2019-05-10T20:57:39.103Z,10.93
2019-05-10T21:02:43.169Z,14.07
2019-05-10T21:07:47.321Z,14.63
2019-05-10T21:12:51.350Z,13.62
2019-05-10T21:17:55.569Z,14.53
2019-05-10T21:22:59.955Z,15.45
2019-05-10T21:28:04.055Z,12.30
2019-05-10T21:33:08.093Z,12.78
2019-05-10T21:38:12.234Z,16.75
2019-05-10T21:43:16.161Z,14.70
2019-05-10T21:48:20.152Z,15.43
2019-05-10T21:53:25.434Z,18.23
2019-05-10T21:58:29.725Z,17.00
2019-05-10T22:03:34.023Z,15.10
2019-05-10T22:08:49.137Z,18.70
2019-05-10T22:13:44.348Z,16.97
2019-05-10T22:18:53.842Z,12.45
2019-05-10T22:23:57.969Z,20.43
2019-05-10T22:29:02.215Z,14.70
2019-05-10T22:34:06.389Z,16.85
2019-05-10T22:39:10.887Z,17.95
2019-05-10T22:44:15.023Z,16.45
2019-05-10T22:49:18.946Z,18.07
2019-05-10T22:54:23.238Z,17.73
2019-05-10T22:59:27.354Z,19.57
2019-05-10T23:04:31.750Z,18.65
2019-05-10T23:09:35.951Z,18.45
2019-05-10T23:14:40.471Z,23.62
2019-05-10T23:24:50.438Z,19.77
2019-05-10T23:29:54.524Z,25.08
2019-05-10T23:34:58.736Z,20.82
2019-05-10T23:40:02.773Z,23.02
2019-05-10T23:45:06.918Z,22.07
2019-05-10T23:50:11.154Z,27.90
2019-05-10T23:55:15.281Z,27.15
